Time;durP1;ratioP1;P1;durP2;ratioP2;P2;SDS_P1;SDS_P2;PMS_P1;PMS_P2;Temp;Humidity;BMP_temperature;BMP_pressure;BME280_temperature;BME280_humidity;BME280_pressure;Samples;Min_cycle;Max_cycle;Signal;HPM_P1;HPM_P2
2023/09/04 00:00:05;;;;;;;1.00;1.00;;;20.10;67.40;;;;;;5053530;28;20215;-67
2023/09/04 00:02:30;;;;;;;1.20;1.20;;;20.10;67.40;;;;;;5054768;28;20171;-71
2023/09/04 00:04:56;;;;;;;1.40;1.17;;;20.10;68.30;;;;;;5054781;28;20590;-71
2023/09/04 00:07:22;;;;;;;1.13;1.02;;;20.10;67.50;;;;;;5053732;28;20182;-67
2023/09/04 00:09:47;;;;;;;1.30;1.20;;;20.10;67.40;;;;;;5054625;28;20171;-66
2023/09/04 00:12:13;;;;;;;0.88;0.88;;;20.10;67.40;;;;;;5053910;28;20697;-66
2023/09/04 00:14:38;;;;;;;1.42;1.13;;;20.10;67.40;;;;;;5053505;28;20186;-64
2023/09/04 00:17:04;;;;;;;1.50;1.40;;;20.10;67.40;;;;;;5054026;28;20190;-66
2023/09/04 00:19:30;;;;;;;1.70;1.40;;;20.10;67.40;;;;;;5054321;28;20186;-66
2023/09/04 00:21:55;;;;;;;1.30;1.20;;;20.10;67.50;;;;;;5053645;28;20618;-65
2023/09/04 00:24:22;;;;;;;1.35;1.10;;;20.10;67.50;;;;;;5053909;28;20171;-66
2023/09/04 00:26:48;;;;;;;1.20;1.10;;;20.10;67.40;;;;;;5053452;28;20183;-65
2023/09/04 00:29:13;;;;;;;1.50;1.20;;;20.10;67.40;;;;;;5053782;28;20676;-66
2023/09/04 00:31:39;;;;;;;1.20;1.10;;;20.10;67.50;;;;;;5054094;28;20666;-66
2023/09/04 00:34:04;;;;;;;1.60;1.30;;;20.10;67.40;;;;;;5063774;28;20179;-68
2023/09/04 00:36:30;;;;;;;1.10;1.05;;;20.10;67.40;;;;;;5073747;28;20178;-67
2023/09/04 00:38:55;;;;;;;1.10;1.10;;;20.10;68.30;;;;;;5073768;28;20202;-67
2023/09/04 00:41:21;;;;;;;1.25;1.15;;;20.10;67.50;;;;;;5072732;28;20182;-67
2023/09/04 00:43:47;;;;;;;1.92;1.35;;;20.10;67.40;;;;;;5073587;28;20190;-66
2023/09/04 00:46:13;;;;;;;1.38;1.10;;;20.10;67.40;;;;;;5073557;28;20178;-67
2023/09/04 00:48:39;;;;;;;1.55;1.08;;;20.10;68.30;;;;;;5073118;28;20174;-66
2023/09/04 00:51:04;;;;;;;1.17;1.13;;;20.10;67.40;;;;;;5073313;28;20576;-66
2023/09/04 00:53:30;;;;;;;1.33;1.23;;;20.10;67.40;;;;;;5072460;28;20174;-66
2023/09/04 00:55:55;;;;;;;1.50;1.40;;;20.10;67.40;;;;;;5071727;28;20179;-66
2023/09/04 00:58:21;;;;;;;1.63;1.48;;;20.00;67.40;;;;;;5071709;28;20305;-67
2023/09/04 01:00:46;;;;;;;1.20;1.10;;;20.10;67.40;;;;;;5072277;28;20186;-66
2023/09/04 01:03:12;;;;;;;1.20;1.10;;;20.00;67.30;;;;;;5072448;28;20178;-68
2023/09/04 01:05:38;;;;;;;1.20;1.10;;;20.10;67.40;;;;;;5073373;28;20296;-67
2023/09/04 01:08:04;;;;;;;1.30;1.20;;;20.10;67.40;;;;;;5073020;28;20299;-68
2023/09/04 01:10:34;;;;;;;0.98;0.98;;;20.00;67.30;;;;;;5072485;28;20185;-67
2023/09/04 01:13:40;;;;;;;1.27;1.23;;;20.10;67.40;;;;;;5071834;28;20206;-66
2023/09/04 01:16:06;;;;;;;1.35;1.25;;;20.00;67.40;;;;;;5071912;28;20555;-66
2023/09/04 01:18:32;;;;;;;1.10;0.98;;;20.00;67.30;;;;;;5073219;28;20257;-66
2023/09/04 01:21:02;;;;;;;1.40;1.30;;;20.00;67.30;;;;;;5071920;28;20217;-66
2023/09/04 01:23:27;;;;;;;1.30;1.20;;;20.00;67.30;;;;;;5072312;28;20178;-66
2023/09/04 01:25:58;;;;;;;1.20;1.10;;;20.10;67.40;;;;;;5073057;28;20247;-66
2023/09/04 01:28:31;;;;;;;1.40;1.30;;;20.00;67.40;;;;;;5073176;28;20166;-66
2023/09/04 01:31:17;;;;;;;1.25;1.15;;;20.00;67.40;;;;;;5071186;28;20210;-67
2023/09/04 01:33:47;;;;;;;1.45;1.35;;;20.00;67.40;;;;;;5065224;28;20179;-66
2023/09/04 01:36:13;;;;;;;1.70;1.30;;;20.00;67.40;;;;;;5051670;28;20649;-67
2023/09/04 01:38:39;;;;;;;1.20;1.20;;;20.00;67.40;;;;;;5051122;28;20179;-66
2023/09/04 01:41:07;;;;;;;1.30;1.20;;;20.00;67.40;;;;;;5051721;28;20538;-68
2023/09/04 01:43:33;;;;;;;0.90;0.90;;;20.00;67.40;;;;;;5052231;28;20179;-66
2023/09/04 01:45:58;;;;;;;1.30;1.20;;;20.00;67.30;;;;;;5051889;28;20179;-67
2023/09/04 01:48:24;;;;;;;1.40;1.30;;;20.00;67.30;;;;;;5051522;28;20216;-67
2023/09/04 01:50:49;;;;;;;1.50;1.27;;;19.90;67.20;;;;;;5052627;28;20211;-65
2023/09/04 01:53:16;;;;;;;1.52;1.42;;;20.00;67.30;;;;;;5051680;28;20217;-66
2023/09/04 01:55:42;;;;;;;1.13;1.10;;;20.00;67.30;;;;;;5052599;28;20219;-65
2023/09/04 01:58:07;;;;;;;1.55;1.45;;;19.90;67.30;;;;;;5051401;28;20182;-67
2023/09/04 02:00:33;;;;;;;1.33;1.23;;;19.90;67.20;;;;;;5052570;28;20175;-65
2023/09/04 02:02:58;;;;;;;1.50;1.40;;;19.90;67.30;;;;;;5052283;28;20171;-67
2023/09/04 02:05:24;;;;;;;1.23;1.13;;;20.00;67.20;;;;;;5051942;28;20717;-68
2023/09/04 02:07:49;;;;;;;1.00;1.00;;;20.00;67.30;;;;;;5052326;28;20221;-67
2023/09/04 02:10:15;;;;;;;1.40;1.30;;;20.00;67.30;;;;;;5052401;28;20274;-67
2023/09/04 02:12:41;;;;;;;1.30;1.20;;;19.90;67.20;;;;;;5051812;28;20298;-65
2023/09/04 02:15:07;;;;;;;1.23;1.13;;;20.00;67.30;;;;;;5052509;28;20228;-66
2023/09/04 02:17:33;;;;;;;1.58;1.48;;;20.00;67.20;;;;;;5052349;28;20261;-66
2023/09/04 02:19:59;;;;;;;1.40;1.30;;;19.90;67.20;;;;;;5051536;28;20325;-66
2023/09/04 02:22:25;;;;;;;1.40;1.30;;;19.90;67.20;;;;;;5052231;28;20650;-67
2023/09/04 02:24:50;;;;;;;1.55;1.45;;;20.00;67.30;;;;;;5052541;28;20175;-66
2023/09/04 02:27:16;;;;;;;1.67;1.58;;;20.00;67.30;;;;;;5051448;28;20270;-66
2023/09/04 02:29:41;;;;;;;1.48;1.30;;;19.90;67.20;;;;;;5052373;28;20252;-66
2023/09/04 02:32:07;;;;;;;1.27;1.23;;;19.90;67.20;;;;;;5052113;28;20297;-67
2023/09/04 02:34:32;;;;;;;1.33;1.23;;;20.00;67.30;;;;;;5066105;28;20249;-67
2023/09/04 02:36:58;;;;;;;1.25;1.20;;;19.90;67.20;;;;;;5072195;28;20170;-68
2023/09/04 02:39:24;;;;;;;1.33;1.23;;;19.90;67.20;;;;;;5072433;28;20703;-67
2023/09/04 02:41:50;;;;;;;1.40;1.30;;;20.00;67.20;;;;;;5071734;28;20537;-66
2023/09/04 02:44:15;;;;;;;1.58;1.48;;;19.90;67.20;;;;;;5072057;28;20175;-67
2023/09/04 02:46:41;;;;;;;1.48;1.38;;;19.90;67.20;;;;;;5072307;28;20212;-67
2023/09/04 02:49:06;;;;;;;1.55;1.45;;;19.90;67.20;;;;;;5071181;28;20173;-67
2023/09/04 02:51:32;;;;;;;1.40;1.30;;;19.90;68.00;;;;;;5072440;28;20222;-66
2023/09/04 02:53:58;;;;;;;1.52;1.42;;;19.90;67.20;;;;;;5072140;28;20174;-66
2023/09/04 02:56:23;;;;;;;1.30;1.17;;;19.90;67.20;;;;;;5072862;28;20694;-67
2023/09/04 02:58:49;;;;;;;1.70;1.60;;;19.90;67.20;;;;;;5075674;28;20232;-67
2023/09/04 03:01:16;;;;;;;1.05;1.05;;;19.90;67.20;;;;;;5075353;28;20270;-68
2023/09/04 03:03:41;;;;;;;1.58;1.40;;;19.90;67.20;;;;;;5075006;28;20254;-68
2023/09/04 03:06:10;;;;;;;1.50;1.40;;;19.90;68.00;;;;;;5075277;28;20281;-68
2023/09/04 03:08:38;;;;;;;1.52;1.40;;;19.90;67.20;;;;;;5070442;28;20171;-67
2023/09/04 03:11:10;;;;;;;1.50;1.40;;;19.90;67.20;;;;;;5055857;28;20203;-67
2023/09/04 03:13:37;;;;;;;1.75;1.65;;;19.90;67.20;;;;;;5055509;28;20179;-65
2023/09/04 03:16:04;;;;;;;1.30;1.20;;;19.90;67.20;;;;;;5054775;28;20183;-66
2023/09/04 03:18:30;;;;;;;1.55;1.45;;;19.90;67.20;;;;;;5055473;28;20228;-66
2023/09/04 03:20:56;;;;;;;1.50;1.40;;;19.90;67.10;;;;;;5055532;28;20258;-67
2023/09/04 03:23:21;;;;;;;1.60;1.50;;;19.90;67.10;;;;;;5054479;28;20179;-67
2023/09/04 03:25:47;;;;;;;1.70;1.50;;;19.80;67.10;;;;;;5055479;28;20171;-66
2023/09/04 03:28:12;;;;;;;2.00;1.45;;;19.90;67.10;;;;;;5054981;28;20179;-66
2023/09/04 03:30:38;;;;;;;1.52;1.40;;;19.80;67.10;;;;;;5054580;28;20262;-66
2023/09/04 03:33:04;;;;;;;1.42;1.25;;;19.80;67.10;;;;;;5057216;28;20262;-67
2023/09/04 03:35:29;;;;;;;1.95;1.52;;;19.80;67.10;;;;;;5075251;28;20179;-68
2023/09/04 03:37:55;;;;;;;2.28;1.23;;;19.80;67.10;;;;;;5074326;28;20201;-67
2023/09/04 03:40:22;;;;;;;1.73;1.63;;;19.80;67.00;;;;;;5074724;28;20186;-68
2023/09/04 03:42:48;;;;;;;2.05;1.38;;;19.80;67.10;;;;;;5074807;28;20196;-66
2023/09/04 03:45:13;;;;;;;1.48;1.38;;;19.90;67.20;;;;;;5073930;28;20182;-67
2023/09/04 03:47:39;;;;;;;1.63;1.52;;;19.80;67.10;;;;;;5075322;28;20167;-67
2023/09/04 03:50:07;;;;;;;1.52;1.42;;;19.80;67.00;;;;;;5074799;28;20219;-67
2023/09/04 03:52:33;;;;;;;1.98;1.45;;;19.80;67.10;;;;;;5072792;28;20236;-66
2023/09/04 03:54:59;;;;;;;2.15;1.50;;;19.80;67.10;;;;;;5074695;28;20697;-66
2023/09/04 03:57:25;;;;;;;1.98;1.50;;;19.80;67.10;;;;;;5074560;28;20171;-67
2023/09/04 03:59:53;;;;;;;1.63;1.52;;;19.80;67.00;;;;;;5073640;28;20219;-67
2023/09/04 04:02:19;;;;;;;1.60;1.50;;;19.80;67.00;;;;;;5074472;28;20178;-67
2023/09/04 04:04:45;;;;;;;1.50;1.40;;;19.80;67.00;;;;;;5074074;28;20257;-67
2023/09/04 04:07:10;;;;;;;1.90;1.67;;;19.80;67.10;;;;;;5073848;28;20274;-68
2023/09/04 04:09:36;;;;;;;1.67;1.58;;;19.80;67.10;;;;;;5074365;28;20182;-67
2023/09/04 04:12:01;;;;;;;1.42;1.33;;;19.80;67.10;;;;;;5073356;28;20213;-66
2023/09/04 04:14:28;;;;;;;1.50;1.40;;;19.80;67.10;;;;;;5074071;28;20182;-66
2023/09/04 04:16:54;;;;;;;1.83;1.73;;;19.70;67.00;;;;;;5074565;28;20257;-67
2023/09/04 04:19:20;;;;;;;2.78;1.35;;;19.80;67.10;;;;;;5073185;28;20189;-66
2023/09/04 04:21:46;;;;;;;1.40;1.30;;;19.70;66.90;;;;;;5074433;28;20184;-66
2023/09/04 04:24:12;;;;;;;1.67;1.58;;;19.70;67.00;;;;;;5073845;28;20178;-66
2023/09/04 04:26:39;;;;;;;1.83;1.70;;;19.80;67.00;;;;;;5073474;28;20272;-66
2023/09/04 04:29:05;;;;;;;1.40;1.30;;;19.70;66.90;;;;;;5073796;28;20174;-67
2023/09/04 04:31:30;;;;;;;1.58;1.48;;;19.70;66.90;;;;;;5073683;28;20271;-66
2023/09/04 04:33:56;;;;;;;4.30;1.60;;;19.70;66.90;;;;;;5063673;28;20179;-67
2023/09/04 04:36:21;;;;;;;1.55;1.45;;;19.70;66.90;;;;;;5053589;28;20217;-68
2023/09/04 04:38:47;;;;;;;1.80;1.70;;;19.70;67.80;;;;;;5053767;28;20179;-67
2023/09/04 04:41:13;;;;;;;1.73;1.63;;;19.70;66.90;;;;;;5052944;28;20180;-68
2023/09/04 04:43:38;;;;;;;2.67;1.77;;;19.70;66.90;;;;;;5052791;28;20195;-66
2023/09/04 04:46:04;;;;;;;1.73;1.63;;;19.80;67.00;;;;;;5053847;28;20224;-67
2023/09/04 04:48:30;;;;;;;1.80;1.70;;;19.80;67.10;;;;;;5053008;28;20224;-68
2023/09/04 04:50:55;;;;;;;1.85;1.75;;;19.70;67.00;;;;;;5053580;28;20289;-66
2023/09/04 04:53:21;;;;;;;1.80;1.70;;;19.70;67.80;;;;;;5053385;28;20171;-67
2023/09/04 04:55:46;;;;;;;1.77;1.60;;;19.70;67.80;;;;;;5052811;28;20181;-67
2023/09/04 04:58:12;;;;;;;1.60;1.50;;;19.80;67.00;;;;;;5052975;28;20219;-67
2023/09/04 05:00:38;;;;;;;1.50;1.40;;;19.70;67.00;;;;;;5053700;28;20649;-68
2023/09/04 05:03:05;;;;;;;1.48;1.38;;;19.70;66.90;;;;;;5052803;28;20179;-68
2023/09/04 05:05:30;;;;;;;1.65;1.55;;;19.70;66.90;;;;;;5053503;28;20258;-68
2023/09/04 05:07:56;;;;;;;1.50;1.40;;;19.70;67.80;;;;;;5052869;28;20590;-67
2023/09/04 05:10:21;;;;;;;1.85;1.63;;;19.70;66.90;;;;;;5053032;28;20198;-68
2023/09/04 05:12:47;;;;;;;1.88;1.65;;;19.70;67.00;;;;;;5053164;28;20226;-65
2023/09/04 05:15:13;;;;;;;1.73;1.63;;;19.70;67.80;;;;;;5052341;28;20638;-66
2023/09/04 05:17:38;;;;;;;2.75;1.88;;;19.70;66.90;;;;;;5053331;28;20209;-66
2023/09/04 05:20:05;;;;;;;1.40;1.30;;;19.70;66.90;;;;;;5052328;28;20167;-66
2023/09/04 05:22:31;;;;;;;1.80;1.70;;;19.70;66.90;;;;;;5052412;28;20183;-66
2023/09/04 05:24:57;;;;;;;1.73;1.63;;;19.70;66.90;;;;;;5053067;28;20206;-66
2023/09/04 05:27:22;;;;;;;1.70;1.60;;;19.70;66.90;;;;;;5052917;28;20212;-66
2023/09/04 05:29:48;;;;;;;1.70;1.60;;;19.70;66.80;;;;;;5052228;28;20638;-66
2023/09/04 05:32:14;;;;;;;1.60;1.50;;;19.70;66.90;;;;;;5052680;28;20211;-68
2023/09/04 05:34:40;;;;;;;1.60;1.50;;;19.70;66.90;;;;;;5068382;28;20175;-67
2023/09/04 05:37:09;;;;;;;1.70;1.60;;;19.70;66.90;;;;;;5071996;28;20174;-68
2023/09/04 05:39:35;;;;;;;1.70;1.60;;;19.70;67.70;;;;;;5072758;28;20174;-68
2023/09/04 05:42:01;;;;;;;1.63;1.52;;;19.80;67.00;;;;;;5072769;28;20174;-67
2023/09/04 05:44:26;;;;;;;1.88;1.77;;;19.80;67.00;;;;;;5071832;28;20205;-67
2023/09/04 05:46:52;;;;;;;1.70;1.60;;;19.70;66.80;;;;;;5072763;28;20178;-67
2023/09/04 05:49:17;;;;;;;1.65;1.55;;;19.70;66.80;;;;;;5072553;28;20189;-67
2023/09/04 05:51:43;;;;;;;1.42;1.33;;;19.70;66.90;;;;;;5072356;28;20712;-65
2023/09/04 05:54:09;;;;;;;1.33;1.27;;;19.80;67.70;;;;;;5072447;28;20174;-67
2023/09/04 05:56:34;;;;;;;1.63;1.52;;;19.70;66.80;;;;;;5072767;28;20299;-66
2023/09/04 05:59:00;;;;;;;1.60;1.50;;;19.70;66.80;;;;;;5071633;28;20260;-67
2023/09/04 06:01:27;;;;;;;1.65;1.55;;;19.70;66.80;;;;;;5072784;28;20228;-68
2023/09/04 06:03:54;;;;;;;2.22;2.03;;;19.80;66.80;;;;;;5072696;28;20178;-67
2023/09/04 06:06:19;;;;;;;1.52;1.42;;;19.80;66.70;;;;;;5071684;28;20273;-67
2023/09/04 06:08:45;;;;;;;1.60;1.50;;;19.80;66.70;;;;;;5072746;28;20193;-66
2023/09/04 06:11:12;;;;;;;1.70;1.60;;;19.80;66.70;;;;;;5071989;28;20541;-67
2023/09/04 06:13:37;;;;;;;1.55;1.45;;;19.80;66.80;;;;;;5072398;28;20186;-65
2023/09/04 06:16:03;;;;;;;1.45;1.35;;;19.70;66.60;;;;;;5072327;28;20174;-66
2023/09/04 06:18:29;;;;;;;1.52;1.42;;;19.80;66.60;;;;;;5071866;28;20257;-66
2023/09/04 06:20:55;;;;;;;1.58;1.48;;;19.80;67.20;;;;;;5072766;28;20278;-66
2023/09/04 06:23:21;;;;;;;1.70;1.60;;;19.80;67.50;;;;;;5072147;28;20700;-66
2023/09/04 06:25:46;;;;;;;1.85;1.60;;;19.80;66.60;;;;;;5071851;28;20220;-65
2023/09/04 06:28:12;;;;;;;1.85;1.75;;;19.90;66.60;;;;;;5072144;28;20175;-66
2023/09/04 06:30:38;;;;;;;1.70;1.60;;;19.90;66.60;;;;;;5074150;28;20174;-65
2023/09/04 06:33:03;;;;;;;1.50;1.40;;;19.90;66.50;;;;;;5073162;28;20182;-67
2023/09/04 06:35:29;;;;;;;1.70;1.60;;;19.90;66.50;;;;;;5056071;28;20175;-68
2023/09/04 06:37:55;;;;;;;1.60;1.50;;;19.90;66.60;;;;;;5056157;28;20537;-68
2023/09/04 06:40:21;;;;;;;1.60;1.50;;;19.90;66.50;;;;;;5055183;28;20513;-68
2023/09/04 06:42:46;;;;;;;1.42;1.33;;;19.90;66.40;;;;;;5056151;28;20182;-66
2023/09/04 06:45:12;;;;;;;1.77;1.67;;;19.90;66.40;;;;;;5055995;28;20577;-67
2023/09/04 06:47:38;;;;;;;1.55;1.45;;;19.90;66.40;;;;;;5055412;28;20250;-66
2023/09/04 06:50:06;;;;;;;1.60;1.50;;;20.00;66.40;;;;;;5055839;28;20202;-66
2023/09/04 06:52:31;;;;;;;1.52;1.42;;;20.00;66.40;;;;;;5055632;28;20203;-66
2023/09/04 06:54:57;;;;;;;1.80;1.70;;;19.90;66.20;;;;;;5055197;28;20182;-68
2023/09/04 06:57:22;;;;;;;1.70;1.60;;;20.00;66.30;;;;;;5055932;28;20569;-69
2023/09/04 06:59:48;;;;;;;1.70;1.50;;;20.10;67.40;;;;;;5055580;28;20253;-68
2023/09/04 07:02:14;;;;;;;2.13;1.65;;;20.00;66.30;;;;;;5054558;28;20175;-68
2023/09/04 07:04:40;;;;;;;2.25;1.52;;;20.10;66.30;;;;;;5055496;28;20194;-67
2023/09/04 07:07:05;;;;;;;1.95;1.67;;;20.00;66.20;;;;;;5055278;28;20163;-68
2023/09/04 07:09:31;;;;;;;1.70;1.60;;;20.10;66.30;;;;;;5054689;28;20255;-67
2023/09/04 07:11:56;;;;;;;1.50;1.40;;;20.10;66.30;;;;;;5055538;28;20230;-67
2023/09/04 07:14:25;;;;;;;2.15;1.95;;;20.10;66.20;;;;;;5055715;28;20217;-66
2023/09/04 07:16:50;;;;;;;2.10;1.90;;;20.10;66.20;;;;;;5054892;28;20639;-66
2023/09/04 07:19:16;;;;;;;1.92;1.63;;;20.10;66.20;;;;;;5055237;28;20686;-68
2023/09/04 07:21:41;;;;;;;1.80;1.70;;;20.10;66.20;;;;;;5054606;28;20650;-68
2023/09/04 07:24:08;;;;;;;1.80;1.70;;;20.20;66.10;;;;;;5055305;28;20642;-67
2023/09/04 07:26:33;;;;;;;6.32;1.88;;;20.30;66.10;;;;;;5055453;28;20175;-66
2023/09/04 07:28:59;;;;;;;2.15;1.92;;;20.20;66.10;;;;;;5054569;28;20701;-67
2023/09/04 07:31:24;;;;;;;2.10;2.00;;;20.30;66.00;;;;;;5055292;28;20721;-68
2023/09/04 07:33:50;;;;;;;2.05;1.70;;;20.30;66.00;;;;;;5063690;28;20539;-67
2023/09/04 07:36:16;;;;;;;1.98;1.88;;;20.30;66.80;;;;;;5074148;28;20260;-68
2023/09/04 07:38:42;;;;;;;1.63;1.52;;;20.30;66.00;;;;;;5075097;28;20174;-66
2023/09/04 07:41:08;;;;;;;1.88;1.77;;;20.30;66.00;;;;;;5074358;28;20183;-69
2023/09/04 07:43:33;;;;;;;2.70;2.00;;;20.40;66.00;;;;;;5074025;28;20178;-68
2023/09/04 07:46:00;;;;;;;1.75;1.65;;;20.40;66.00;;;;;;5074831;28;20633;-69
2023/09/04 07:48:26;;;;;;;2.00;1.88;;;20.40;66.00;;;;;;5074916;28;20190;-69
2023/09/04 07:50:52;;;;;;;2.40;2.08;;;20.40;66.00;;;;;;5074092;28;20174;-68
2023/09/04 07:53:19;;;;;;;3.03;1.83;;;20.40;66.00;;;;;;5074817;28;20202;-68
2023/09/04 07:55:45;;;;;;;2.85;1.90;;;20.40;66.10;;;;;;5074904;28;20179;-67
2023/09/04 07:58:11;;;;;;;2.60;2.40;;;20.50;66.20;;;;;;5073643;28;20185;-68
2023/09/04 08:00:42;;;;;;;2.33;1.83;;;20.50;66.20;;;;;;5074870;28;20167;-69
2023/09/04 08:03:07;;;;;;;2.10;1.80;;;20.50;66.20;;;;;;5075376;28;20175;-69
2023/09/04 08:05:35;;;;;;;2.50;2.00;;;20.50;67.00;;;;;;5073884;28;20257;-68
2023/09/04 08:08:02;;;;;;;2.35;1.55;;;20.50;66.20;;;;;;5074712;28;20181;-69
2023/09/04 08:10:27;;;;;;;1.70;1.60;;;20.50;67.00;;;;;;5074391;28;20170;-69
2023/09/04 08:12:53;;;;;;;2.95;1.98;;;20.50;66.20;;;;;;5073544;28;20221;-68
2023/09/04 08:15:18;;;;;;;2.90;2.10;;;20.60;66.20;;;;;;5074069;28;20174;-67
2023/09/04 08:17:45;;;;;;;3.15;1.95;;;20.60;66.30;;;;;;5074385;28;20676;-68
2023/09/04 08:20:12;;;;;;;1.38;1.27;;;20.60;67.10;;;;;;5073176;28;20175;-67
2023/09/04 08:22:37;;;;;;;2.13;1.80;;;20.60;66.30;;;;;;5074290;28;20709;-67
2023/09/04 08:25:04;;;;;;;1.73;1.50;;;20.60;66.30;;;;;;5073545;28;20173;-67
2023/09/04 08:27:29;;;;;;;1.92;1.83;;;20.70;66.40;;;;;;5074140;28;20676;-67
2023/09/04 08:29:55;;;;;;;2.67;1.90;;;20.70;66.40;;;;;;5073971;28;20178;-67
2023/09/04 08:32:20;;;;;;;3.55;1.63;;;20.70;66.40;;;;;;5072952;28;20213;-69
2023/09/04 08:34:46;;;;;;;1.90;1.40;;;20.70;66.40;;;;;;5057576;28;20180;-67
2023/09/04 08:37:11;;;;;;;1.88;1.77;;;20.70;66.40;;;;;;5053509;28;20622;-69
2023/09/04 08:39:37;;;;;;;2.63;1.77;;;20.80;66.50;;;;;;5053407;28;20179;-67
2023/09/04 08:42:07;;;;;;;2.10;1.52;;;20.80;67.30;;;;;;5053649;28;20182;-68
2023/09/04 08:44:33;;;;;;;2.83;2.03;;;20.80;66.50;;;;;;5053937;28;20190;-68
2023/09/04 08:46:58;;;;;;;1.85;1.73;;;20.80;66.40;;;;;;5035191;28;20187;-68
2023/09/04 08:49:24;;;;;;;1.88;1.60;;;20.80;66.40;;;;;;5052503;28;20179;-68
2023/09/04 08:51:52;;;;;;;2.72;2.40;;;20.80;66.40;;;;;;5053936;28;20226;-67
2023/09/04 08:54:17;;;;;;;4.57;1.90;;;20.90;66.50;;;;;;5050660;28;20219;-67
2023/09/04 08:56:43;;;;;;;1.90;1.70;;;20.90;66.50;;;;;;5052595;28;20206;-66
2023/09/04 08:59:08;;;;;;;2.40;1.70;;;20.90;66.50;;;;;;5053118;28;20223;-67
2023/09/04 09:01:34;;;;;;;1.95;1.75;;;20.90;66.50;;;;;;5052840;28;20181;-68
2023/09/04 09:04:02;;;;;;;2.35;1.63;;;20.90;66.40;;;;;;5051998;28;20216;-68
2023/09/04 09:06:27;;;;;;;1.75;1.65;;;21.00;66.50;;;;;;5053541;28;20258;-68
2023/09/04 09:08:53;;;;;;;1.95;1.80;;;21.00;66.50;;;;;;5052903;28;20702;-68
2023/09/04 09:11:19;;;;;;;2.00;1.80;;;21.00;66.40;;;;;;5053038;28;20542;-68
2023/09/04 09:13:47;;;;;;;3.17;1.90;;;21.00;66.40;;;;;;5053459;28;20175;-67
2023/09/04 09:16:17;;;;;;;2.10;1.80;;;21.00;66.40;;;;;;5052425;28;20183;-67
2023/09/04 09:18:43;;;;;;;2.38;1.60;;;21.10;66.40;;;;;;5053536;28;20171;-67
2023/09/04 09:21:21;;;;;;;1.80;1.70;;;21.10;66.40;;;;;;5052171;28;20224;-67
2023/09/04 09:23:46;;;;;;;1.92;1.83;;;21.10;66.40;;;;;;5053397;28;20186;-67
2023/09/04 09:26:12;;;;;;;2.03;1.67;;;21.10;66.40;;;;;;5052857;28;20171;-67
2023/09/04 09:28:37;;;;;;;1.90;1.80;;;21.10;66.40;;;;;;5052584;28;20254;-66
2023/09/04 09:31:03;;;;;;;2.13;1.70;;;21.20;66.50;;;;;;5051517;28;20191;-68
2023/09/04 09:33:29;;;;;;;2.63;1.90;;;21.10;66.40;;;;;;5057672;28;20227;-68
2023/09/04 09:35:56;;;;;;;2.15;1.95;;;21.20;66.60;;;;;;5071248;28;20169;-68
2023/09/04 09:38:21;;;;;;;2.22;1.85;;;21.20;66.50;;;;;;5072872;28;20180;-68
2023/09/04 09:40:47;;;;;;;2.00;1.83;;;21.20;66.50;;;;;;5072865;28;20607;-67
2023/09/04 09:43:13;;;;;;;2.08;1.85;;;21.20;66.50;;;;;;5071876;28;20178;-67
2023/09/04 09:45:38;;;;;;;2.30;1.73;;;21.20;66.50;;;;;;5072767;28;20186;-68
2023/09/04 09:48:05;;;;;;;2.15;1.88;;;21.20;66.40;;;;;;5072885;28;20586;-68
2023/09/04 09:50:31;;;;;;;2.00;1.80;;;21.20;66.40;;;;;;5072163;28;20253;-70
2023/09/04 09:52:58;;;;;;;2.38;2.17;;;21.20;66.40;;;;;;5071368;28;20292;-67
2023/09/04 09:55:24;;;;;;;2.25;1.77;;;21.30;66.50;;;;;;5072727;28;20253;-68
2023/09/04 09:57:51;;;;;;;2.05;1.80;;;21.20;66.40;;;;;;5070860;28;20180;-68
2023/09/04 10:00:17;;;;;;;1.88;1.77;;;21.30;66.30;;;;;;5071089;28;20611;-70
2023/09/04 10:02:42;;;;;;;2.67;1.95;;;21.30;66.30;;;;;;5071251;28;20258;-69
2023/09/04 10:05:09;;;;;;;2.00;1.90;;;21.40;66.30;;;;;;5070160;28;20171;-70
2023/09/04 10:07:35;;;;;;;2.33;1.80;;;21.40;66.30;;;;;;5071168;28;20204;-73
2023/09/04 10:10:05;;;;;;;3.80;1.77;;;21.40;66.40;;;;;;5071194;28;20171;-74
2023/09/04 10:12:35;;;;;;;2.65;2.10;;;21.50;66.30;;;;;;5070885;28;20206;-68
2023/09/04 10:15:01;;;;;;;2.70;2.10;;;21.50;66.30;;;;;;5071736;28;20275;-73
2023/09/04 10:17:35;;;;;;;4.80;1.98;;;21.50;66.20;;;;;;5071675;28;20213;-73
2023/09/04 10:20:04;;;;;;;3.00;2.30;;;21.60;66.30;;;;;;5071300;28;20186;-73
2023/09/04 10:22:37;;;;;;;2.65;2.00;;;21.60;66.20;;;;;;5072412;28;20228;-72
2023/09/04 10:25:09;;;;;;;2.20;1.90;;;21.60;66.20;;;;;;5070239;28;20258;-73
2023/09/04 10:27:39;;;;;;;3.05;1.95;;;21.60;66.10;;;;;;5071364;28;20170;-72
2023/09/04 10:30:06;;;;;;;2.80;1.92;;;21.60;66.00;;;;;;5071298;28;20175;-73
2023/09/04 10:32:33;;;;;;;2.83;1.73;;;21.60;66.10;;;;;;5071394;28;20233;-72
2023/09/04 10:35:01;;;;;;;3.22;2.20;;;21.60;66.00;;;;;;5053909;28;20171;-73
2023/09/04 10:37:29;;;;;;;2.85;1.70;;;21.70;66.00;;;;;;5052060;28;20626;-73
2023/09/04 10:39:54;;;;;;;2.38;2.00;;;21.70;65.90;;;;;;5034050;28;20167;-73
2023/09/04 10:42:23;;;;;;;1.85;1.55;;;21.70;65.90;;;;;;5034255;28;20198;-74
2023/09/04 10:44:51;;;;;;;2.38;1.90;;;21.70;65.90;;;;;;5052399;28;20186;-73
2023/09/04 10:47:16;;;;;;;3.15;1.80;;;21.80;65.90;;;;;;5051389;28;20171;-71
2023/09/04 10:49:42;;;;;;;1.77;1.67;;;21.80;65.90;;;;;;5052247;28;20202;-71
2023/09/04 10:52:09;;;;;;;3.55;2.03;;;21.80;65.90;;;;;;5051685;28;20658;-73
2023/09/04 10:54:34;;;;;;;1.90;1.77;;;21.80;66.70;;;;;;5051302;28;20172;-72
2023/09/04 10:57:02;;;;;;;2.63;2.00;;;21.80;65.80;;;;;;5052176;28;20665;-75
2023/09/04 10:59:27;;;;;;;2.47;1.90;;;21.80;65.80;;;;;;5051880;28;20269;-74
2023/09/04 11:01:53;;;;;;;1.92;1.65;;;21.80;65.80;;;;;;5051581;28;20546;-75
2023/09/04 11:04:34;;;;;;;1.98;1.80;;;21.80;65.80;;;;;;5051745;28;20187;-76
2023/09/04 11:07:18;;;;;;;2.67;1.83;;;21.80;65.80;;;;;;5051169;28;20175;-74
2023/09/04 11:09:44;;;;;;;2.05;1.70;;;21.80;65.80;;;;;;5052163;28;20175;-72
2023/09/04 11:12:11;;;;;;;1.88;1.77;;;21.90;65.80;;;;;;5051770;28;20261;-72
2023/09/04 11:14:44;;;;;;;1.88;1.75;;;21.90;65.90;;;;;;5051231;28;20639;-72
2023/09/04 11:17:10;;;;;;;1.98;1.80;;;21.90;65.80;;;;;;5051675;28;20187;-73
2023/09/04 11:19:35;;;;;;;1.65;1.55;;;21.90;65.80;;;;;;5054054;28;20202;-72
2023/09/04 11:22:01;;;;;;;1.90;1.80;;;21.90;65.80;;;;;;5053262;28;20175;-72
2023/09/04 11:24:26;;;;;;;2.17;1.98;;;21.90;65.80;;;;;;5055340;28;20197;-73
2023/09/04 11:26:52;;;;;;;2.10;1.70;;;21.90;65.70;;;;;;5055137;28;20171;-72
2023/09/04 11:29:19;;;;;;;2.17;1.90;;;22.00;65.60;;;;;;5054166;28;20179;-73
2023/09/04 11:31:45;;;;;;;1.85;1.70;;;22.00;65.60;;;;;;5055173;28;20210;-72
2023/09/04 11:34:10;;;;;;;1.95;1.77;;;22.00;65.60;;;;;;5065158;28;20166;-75
2023/09/04 11:36:39;;;;;;;1.73;1.63;;;22.00;65.60;;;;;;5073369;28;20227;-75
2023/09/04 11:39:06;;;;;;;1.90;1.80;;;22.00;65.60;;;;;;5075105;28;20253;-74
2023/09/04 11:41:32;;;;;;;1.83;1.70;;;22.00;65.70;;;;;;5075083;28;20179;-73
2023/09/04 11:43:58;;;;;;;1.67;1.58;;;21.90;66.50;;;;;;5074249;28;20244;-74
2023/09/04 11:46:23;;;;;;;1.77;1.67;;;21.90;65.80;;;;;;5074916;28;20190;-72
2023/09/04 11:48:49;;;;;;;2.65;1.80;;;22.00;65.70;;;;;;5073186;28;20171;-72
2023/09/04 11:51:14;;;;;;;1.73;1.63;;;22.00;66.40;;;;;;5072901;28;20209;-72
2023/09/04 11:53:40;;;;;;;2.20;2.00;;;22.00;65.50;;;;;;5073586;28;20174;-71
2023/09/04 11:56:06;;;;;;;2.00;1.58;;;22.00;65.50;;;;;;5072553;28;20167;-73
2023/09/04 11:58:33;;;;;;;3.78;2.00;;;22.00;65.40;;;;;;5074253;28;20217;-73
2023/09/04 12:00:59;;;;;;;2.03;1.55;;;22.10;65.40;;;;;;5074330;28;20610;-69
2023/09/04 12:03:24;;;;;;;2.40;1.85;;;22.10;65.30;;;;;;5074126;28;20272;-69
2023/09/04 12:05:51;;;;;;;4.35;2.20;;;22.10;65.30;;;;;;5073593;28;20617;-70
2023/09/04 12:08:17;;;;;;;3.38;1.75;;;22.10;65.20;;;;;;5073267;28;20179;-72
2023/09/04 12:10:43;;;;;;;4.30;1.63;;;22.10;65.20;;;;;;5073988;28;20174;-68
2023/09/04 12:13:09;;;;;;;5.45;1.95;;;22.20;65.20;;;;;;5074121;28;20280;-69
2023/09/04 12:15:34;;;;;;;1.95;1.85;;;22.20;65.40;;;;;;5073290;28;20178;-68
2023/09/04 12:18:04;;;;;;;1.95;1.45;;;22.20;65.50;;;;;;5073827;28;20620;-70
2023/09/04 12:20:40;;;;;;;2.00;1.63;;;22.20;65.50;;;;;;5074616;28;20178;-68
2023/09/04 12:23:05;;;;;;;1.75;1.65;;;22.20;65.50;;;;;;5074204;28;20174;-68
2023/09/04 12:25:41;;;;;;;2.80;1.65;;;22.20;65.40;;;;;;5073594;28;20189;-68
2023/09/04 12:28:13;;;;;;;2.63;1.67;;;22.20;65.40;;;;;;5073710;28;20618;-69
2023/09/04 12:30:40;;;;;;;3.75;2.15;;;22.30;65.50;;;;;;5074368;28;20174;-67
2023/09/04 12:33:13;;;;;;;1.80;1.70;;;22.30;65.20;;;;;;5070628;28;20620;-70
2023/09/04 12:35:39;;;;;;;3.08;1.75;;;22.40;65.20;;;;;;5053738;28;20201;-70
2023/09/04 12:38:05;;;;;;;1.80;1.70;;;22.40;64.90;;;;;;5052789;28;20187;-72
2023/09/04 12:40:31;;;;;;;2.58;1.73;;;22.40;64.80;;;;;;5053742;28;20535;-70
2023/09/04 12:42:56;;;;;;;1.75;1.65;;;22.40;64.80;;;;;;5053844;28;20167;-69